Time;durP1;ratioP1;P1;durP2;ratioP2;P2;SDS_P1;SDS_P2;PMS_P1;PMS_P2;Temp;Humidity;BMP_temperature;BMP_pressure;BME280_temperature;BME280_humidity;BME280_pressure;Samples;Min_cycle;Max_cycle;Signal;HPM_P1;HPM_P2
2023/06/15 08:57:35;;;;;;;8.20;3.45;;;;;;;22.80;41.17;101719.16;5068860;28;20391;-70
2023/06/15 09:00:01;;;;;;;11.27;3.20;;;;;;;22.88;41.15;101711.38;5069190;28;20037;-70
2023/06/15 09:02:28;;;;;;;10.02;3.47;;;;;;;22.78;40.32;101718.63;5035440;28;20037;-69
2023/06/15 09:04:54;;;;;;;5.63;3.13;;;;;;;22.94;41.19;101716.56;5029386;28;20111;-70
2023/06/15 09:07:20;;;;;;;8.38;3.00;;;;;;;22.91;40.74;101708.84;5029313;28;20057;-69
2023/06/15 09:10:15;;;;;;;4.55;2.90;;;;;;;23.00;41.51;101717.34;5029124;28;20432;-71
2023/06/15 09:12:49;;;;;;;5.65;3.22;;;;;;;23.01;39.86;101719.81;5010538;28;20025;-69
2023/06/15 09:15:26;;;;;;;9.02;3.20;;;;;;;22.92;41.19;101718.78;5009118;28;20044;-69
2023/06/15 09:17:53;;;;;;;6.97;2.70;;;;;;;22.91;39.29;101710.78;5009475;28;20041;-70
2023/06/15 09:20:20;;;;;;;6.53;2.72;;;;;;;23.13;39.18;101719.47;5008974;28;20034;-69
2023/06/15 09:22:46;;;;;;;9.10;2.83;;;;;;;23.38;38.26;101712.06;5023636;28;20022;-70
2023/06/15 09:25:13;;;;;;;6.53;2.83;;;;;;;23.41;37.25;101722.53;5019683;28;20022;-70
2023/06/15 09:27:38;;;;;;;6.50;3.08;;;;;;;23.42;37.74;101721.44;5009344;28;20044;-70
2023/06/15 09:30:06;;;;;;;6.95;2.92;;;;;;;23.62;37.49;101723.16;5009382;28;20030;-70
2023/06/15 09:32:31;;;;;;;7.82;3.08;;;;;;;23.50;38.21;101718.03;5008847;28;20556;-70
2023/06/15 09:34:58;;;;;;;9.88;3.20;;;;;;;23.59;38.25;101714.63;5008906;28;20062;-71
2023/06/15 09:37:25;;;;;;;10.75;3.53;;;;;;;23.50;39.06;101712.50;5007345;28;20034;-70
2023/06/15 09:39:52;;;;;;;5.40;2.67;;;;;;;23.52;40.16;101712.19;5009431;28;20052;-69
2023/06/15 09:42:17;;;;;;;7.88;3.03;;;;;;;23.72;39.02;101713.94;5028338;28;20401;-70
2023/06/15 09:44:43;;;;;;;7.22;2.80;;;;;;;23.70;37.12;101694.91;5028659;28;20028;-70
2023/06/15 09:47:17;;;;;;;6.78;3.05;;;;;;;23.80;37.58;101705.00;5028815;28;20033;-70
2023/06/15 09:49:44;;;;;;;7.35;2.97;;;;;;;23.98;37.53;101710.91;5027298;28;20021;-70
2023/06/15 09:52:13;;;;;;;5.97;2.95;;;;;;;24.29;37.12;101705.81;5028023;28;20040;-70
2023/06/15 09:54:39;;;;;;;6.55;2.90;;;;;;;24.21;36.88;101707.28;5027280;28;20029;-70
2023/06/15 09:57:05;;;;;;;8.48;2.83;;;;;;;24.23;35.89;101713.34;5028879;28;20469;-70
2023/06/15 09:59:31;;;;;;;10.80;3.10;;;;;;;24.10;35.52;101716.84;5014066;28;20469;-70
2023/06/15 10:01:59;;;;;;;5.82;2.80;;;;;;;23.99;36.35;101726.38;5024131;28;20054;-71
2023/06/15 10:04:30;;;;;;;7.63;3.00;;;;;;;23.88;36.09;101718.22;5028640;28;20076;-71
2023/06/15 10:07:00;;;;;;;7.65;3.20;;;;;;;23.86;36.37;101714.91;5025797;28;20033;-71
2023/06/15 10:09:29;;;;;;;9.10;3.50;;;;;;;23.75;36.51;101707.00;5001690;28;20034;-70
2023/06/15 10:12:07;;;;;;;11.98;3.25;;;;;;;23.67;36.66;101714.00;5013876;28;20120;-70
2023/06/15 10:14:41;;;;;;;6.50;3.38;;;;;;;23.57;36.87;101709.41;5014012;28;20029;-71
2023/06/15 10:17:10;;;;;;;10.07;3.30;;;;;;;23.59;36.77;101714.63;5015082;28;20104;-70
2023/06/15 10:19:42;;;;;;;9.00;2.90;;;;;;;23.63;37.13;101708.22;5030107;28;20044;-70
2023/06/15 10:22:15;;;;;;;9.35;3.10;;;;;;;23.55;37.30;101703.34;5015121;28;20045;-70
2023/06/15 10:24:41;;;;;;;6.97;3.00;;;;;;;23.58;37.06;101701.94;5005584;28;20033;-70
2023/06/15 10:27:07;;;;;;;8.10;2.97;;;;;;;23.55;36.64;101703.34;5013000;28;20021;-70
2023/06/15 10:29:47;;;;;;;9.48;3.38;;;;;;;23.49;37.46;101710.03;5013659;28;20037;-71
2023/06/15 10:32:21;;;;;;;6.97;3.05;;;;;;;23.71;36.45;101704.81;5009544;28;20030;-70
2023/06/15 10:35:03;;;;;;;5.85;2.95;;;;;;;23.93;36.58;101705.44;4995527;28;20037;-72
2023/06/15 10:37:31;;;;;;;12.90;3.70;;;;;;;24.08;35.82;101710.78;5010190;28;20133;-71
2023/06/15 10:40:10;;;;;;;4.90;3.00;;;;;;;24.22;35.63;101711.69;5010448;28;20477;-71
2023/06/15 10:42:49;;;;;;;6.85;3.15;;;;;;;24.43;36.22;101714.19;4995214;28;20080;-73
2023/06/15 10:45:34;;;;;;;6.53;3.10;;;;;;;24.66;36.29;101708.91;4993817;28;20042;-74
2023/06/15 10:48:02;;;;;;;4.70;2.75;;;;;;;24.72;34.77;101708.53;4993874;28;20033;-71
2023/06/15 10:50:37;;;;;;;7.45;2.88;;;;;;;24.89;35.15;101701.63;4994855;28;20034;-72
2023/06/15 10:53:03;;;;;;;8.15;3.30;;;;;;;25.04;34.57;101698.59;4993527;28;20097;-72
2023/06/15 10:55:28;;;;;;;5.93;3.10;;;;;;;24.89;34.82;101702.44;4994448;28;20050;-72
2023/06/15 10:58:16;;;;;;;9.90;3.17;;;;;;;24.82;34.99;101707.56;4995162;28;20057;-72
2023/06/15 11:01:03;;;;;;;7.07;3.13;;;;;;;24.65;35.17;101708.09;4991018;28;20026;-72
2023/06/15 11:03:30;;;;;;;7.57;3.28;;;;;;;24.70;35.10;101710.78;5005909;28;20053;-72
2023/06/15 11:06:04;;;;;;;7.13;3.05;;;;;;;24.75;35.21;101704.34;5012611;28;20062;-72
2023/06/15 11:08:31;;;;;;;5.47;3.20;;;;;;;24.74;34.53;101694.41;5012932;28;20376;-72
2023/06/15 11:10:57;;;;;;;8.23;3.17;;;;;;;24.57;34.14;101701.25;5013083;28;20488;-72
2023/06/15 11:13:26;;;;;;;4.50;2.92;;;;;;;24.70;35.45;101701.66;5005290;28;20030;-72
2023/06/15 11:16:08;;;;;;;7.57;3.08;;;;;;;24.71;35.60;101701.34;5009020;28;20073;-72
2023/06/15 11:19:11;;;;;;;8.40;3.10;;;;;;;24.59;35.72;101699.06;5013505;28;20026;-73
2023/06/15 11:24:44;;;;;;;11.63;3.20;;;;;;;25.06;35.06;101701.06;5012494;28;20029;-73
2023/06/15 11:27:13;;;;;;;5.00;3.10;;;;;;;25.31;36.09;101701.81;5002018;28;20018;-73
2023/06/15 11:29:42;;;;;;;5.50;2.95;;;;;;;25.55;36.39;101696.91;5008150;28;20041;-72
2023/06/15 11:32:12;;;;;;;6.95;3.08;;;;;;;25.74;35.26;101695.97;5012689;28;20469;-75
2023/06/15 11:34:38;;;;;;;8.00;3.05;;;;;;;25.90;34.73;101696.50;5012519;28;20069;-76
2023/06/15 11:37:04;;;;;;;4.72;3.03;;;;;;;26.00;33.67;101694.38;5013597;28;20024;-72
2023/06/15 11:39:30;;;;;;;6.38;3.22;;;;;;;26.06;32.97;101691.47;5013433;28;20029;-70
2023/06/15 11:41:58;;;;;;;6.82;2.92;;;;;;;26.14;32.93;101690.75;5004803;28;20037;-72
2023/06/15 11:44:25;;;;;;;9.05;3.03;;;;;;;26.16;33.35;101688.50;4996657;28;20030;-71
2023/06/15 11:47:01;;;;;;;9.25;3.08;;;;;;;26.14;33.53;101685.22;4993951;28;20057;-71
2023/06/15 11:49:36;;;;;;;8.32;3.22;;;;;;;26.14;32.52;101683.25;5006363;28;20062;-71
2023/06/15 11:52:05;;;;;;;5.03;3.05;;;;;;;26.17;32.71;101695.69;4993876;28;20038;-71
2023/06/15 11:54:31;;;;;;;8.27;2.92;;;;;;;26.22;32.77;101683.66;4993860;28;20030;-71
2023/06/15 11:57:00;;;;;;;5.03;2.75;;;;;;;26.22;33.27;101676.16;4999734;28;20046;-71
2023/06/15 11:59:26;;;;;;;4.85;3.00;;;;;;;26.27;32.54;101681.59;5009206;28;20113;-71
2023/06/15 12:01:53;;;;;;;7.15;2.80;;;;;;;26.18;33.33;101675.16;5000918;28;20437;-71
2023/06/15 12:04:18;;;;;;;8.45;2.88;;;;;;;25.86;31.28;101674.09;5013763;28;20037;-71
2023/06/15 12:06:46;;;;;;;11.00;3.30;;;;;;;25.91;32.21;101676.78;5013266;28;20030;-73
2023/06/15 12:09:12;;;;;;;7.85;3.30;;;;;;;25.78;33.35;101677.63;5013150;28;20113;-72
2023/06/15 12:11:37;;;;;;;12.73;3.78;;;;;;;25.64;33.04;101672.88;5001563;28;20045;-71
2023/06/15 12:14:08;;;;;;;9.90;3.55;;;;;;;25.42;33.76;101672.78;4993967;28;20105;-74
2023/06/15 12:16:34;;;;;;;5.60;3.47;;;;;;;25.29;33.91;101671.59;4993655;28;20033;-72
2023/06/15 12:19:00;;;;;;;6.50;3.28;;;;;;;25.13;33.85;101676.59;5017656;28;20441;-73
2023/06/15 12:21:31;;;;;;;4.85;3.25;;;;;;;24.99;34.53;101670.19;5012076;28;20030;-72
2023/06/15 12:23:56;;;;;;;7.85;3.55;;;;;;;25.12;35.14;101669.41;5013268;28;20065;-72
2023/06/15 12:26:21;;;;;;;4.78;3.00;;;;;;;25.36;34.00;101665.69;5013198;28;20111;-73
2023/06/15 12:28:51;;;;;;;8.00;3.08;;;;;;;25.59;34.74;101661.91;5011553;28;20030;-74
2023/06/15 12:31:16;;;;;;;9.15;3.13;;;;;;;25.87;35.31;101658.31;4995228;28;20037;-70
2023/06/15 12:33:42;;;;;;;5.88;2.92;;;;;;;26.02;34.65;101658.00;4993249;28;20026;-70
2023/06/15 12:36:12;;;;;;;8.07;3.00;;;;;;;26.13;33.50;101655.81;4993413;28;20030;-73
2023/06/15 12:38:39;;;;;;;9.20;3.47;;;;;;;26.24;33.41;101651.69;4993192;28;20117;-73
2023/06/15 12:41:12;;;;;;;9.23;3.42;;;;;;;26.13;31.60;101656.66;4993380;28;20057;-74
2023/06/15 12:43:38;;;;;;;7.72;2.90;;;;;;;26.33;31.53;101651.75;4991511;28;20033;-74
2023/06/15 12:46:03;;;;;;;8.80;3.03;;;;;;;26.40;32.34;101649.38;5006683;28;20042;-73
2023/06/15 12:48:28;;;;;;;6.57;3.30;;;;;;;26.58;32.11;101639.25;5012341;28;20041;-74
2023/06/15 12:50:54;;;;;;;5.13;3.03;;;;;;;26.63;31.90;101638.28;5011545;28;20038;-76
2023/06/15 12:53:20;;;;;;;10.43;3.17;;;;;;;26.64;31.14;101634.38;5012776;28;20121;-74
2023/06/15 12:55:46;;;;;;;9.35;3.00;;;;;;;26.88;31.35;101639.66;5004791;28;20081;-74
2023/06/15 12:58:13;;;;;;;8.25;3.40;;;;;;;27.05;31.56;101630.59;5001553;28;20065;-72
2023/06/15 13:00:38;;;;;;;6.53;2.95;;;;;;;27.15;30.35;101630.31;5009307;28;20604;-72
2023/06/15 13:03:08;;;;;;;8.48;2.78;;;;;;;27.07;29.80;101631.09;5012655;28;20056;-72
2023/06/15 13:05:34;;;;;;;6.95;3.05;;;;;;;27.43;30.53;101629.31;5012272;28;20065;-72
2023/06/15 13:08:01;;;;;;;7.93;3.33;;;;;;;27.57;31.36;101613.38;5012608;28;20037;-71
2023/06/15 13:10:31;;;;;;;5.93;2.83;;;;;;;27.70;31.15;101633.81;5010630;28;20089;-72
2023/06/15 13:12:57;;;;;;;4.20;2.70;;;;;;;27.37;31.44;101629.47;5011239;28;20504;-69
2023/06/15 13:15:23;;;;;;;14.40;3.30;;;;;;;27.11;32.48;101634.06;5012551;28;20073;-69
2023/06/15 13:17:48;;;;;;;5.78;3.10;;;;;;;26.79;32.55;101633.22;5012584;28;20347;-69
2023/06/15 13:20:14;;;;;;;4.05;2.72;;;;;;;26.60;32.44;101623.09;5008504;28;20036;-69
2023/06/15 13:22:39;;;;;;;8.40;3.10;;;;;;;26.40;32.43;101631.91;5012259;28;20444;-69
2023/06/15 13:25:06;;;;;;;6.65;3.08;;;;;;;26.41;32.00;101633.56;5010590;28;20531;-71
2023/06/15 13:27:37;;;;;;;6.85;3.30;;;;;;;26.69;32.75;101623.19;5007705;28;20045;-72
2023/06/15 13:30:05;;;;;;;7.13;2.90;;;;;;;26.80;32.08;101623.72;5009443;28;20052;-74
2023/06/15 13:32:30;;;;;;;5.43;2.90;;;;;;;27.15;32.00;101621.19;5010399;28;20100;-71
2023/06/15 13:34:55;;;;;;;17.23;3.42;;;;;;;27.13;31.16;101615.09;5011461;28;20049;-71
2023/06/15 13:37:22;;;;;;;7.90;3.20;;;;;;;27.31;31.51;101621.56;5003308;28;20026;-71
2023/06/15 13:39:47;;;;;;;5.78;2.90;;;;;;;27.42;30.83;101606.28;5009151;28;20121;-72
2023/06/15 13:42:12;;;;;;;8.50;3.08;;;;;;;27.70;30.61;101606.81;5010776;28;20771;-70
2023/06/15 13:44:38;;;;;;;6.50;3.33;;;;;;;27.86;29.83;101604.41;5004128;28;20555;-73
2023/06/15 13:47:04;;;;;;;6.50;3.03;;;;;;;27.89;29.57;101605.75;4996477;28;20022;-72
2023/06/15 13:49:29;;;;;;;3.67;3.00;;;;;;;28.02;29.06;101607.59;5011214;28;20421;-72
2023/06/15 13:51:54;;;;;;;6.13;2.67;;;;;;;28.17;28.67;101608.25;4996092;28;20629;-71
2023/06/15 13:54:20;;;;;;;6.45;2.85;;;;;;;28.19;28.44;101597.63;4995209;28;21877;-72
2023/06/15 13:56:45;;;;;;;5.45;2.85;;;;;;;28.23;29.30;101606.94;4994966;28;20132;-71
2023/06/15 13:59:11;;;;;;;9.48;3.50;;;;;;;28.15;29.34;101604.97;4996058;28;20034;-72
2023/06/15 14:01:36;;;;;;;8.95;2.78;;;;;;;28.31;29.23;101596.94;5004436;28;20064;-71
2023/06/15 14:04:02;;;;;;;4.13;2.80;;;;;;;28.35;28.92;101597.94;5015404;28;20030;-72
2023/06/15 14:06:27;;;;;;;7.68;3.15;;;;;;;28.39;28.39;101604.47;5015390;28;20026;-71
2023/06/15 14:08:53;;;;;;;5.20;2.60;;;;;;;28.23;28.04;101602.19;5010574;28;20026;-71
2023/06/15 14:11:19;;;;;;;5.97;2.83;;;;;;;28.22;27.91;101592.22;4996221;28;20080;-73
2023/06/15 14:13:51;;;;;;;12.63;3.53;;;;;;;28.49;28.47;101587.44;5010633;28;20470;-74
2023/06/15 14:16:19;;;;;;;7.72;2.72;;;;;;;28.56;28.41;101584.16;4994672;28;20128;-72
2023/06/15 14:18:45;;;;;;;9.80;3.22;;;;;;;28.56;28.17;101592.50;4998077;28;20499;-72
2023/06/15 14:21:12;;;;;;;8.57;3.10;;;;;;;28.50;27.83;101600.19;5013721;28;20030;-72
2023/06/15 14:23:38;;;;;;;7.78;2.88;;;;;;;28.59;27.69;101602.97;5006046;28;20092;-73
2023/06/15 14:26:03;;;;;;;7.15;3.10;;;;;;;28.52;27.88;101597.09;5010665;28;20034;-71
2023/06/15 14:28:29;;;;;;;5.95;2.67;;;;;;;28.59;27.93;101592.69;4999649;28;20070;-71
2023/06/15 14:30:54;;;;;;;6.72;2.90;;;;;;;28.19;27.62;101592.06;5009768;28;20827;-72
2023/06/15 14:33:19;;;;;;;7.07;2.85;;;;;;;28.19;28.37;101586.50;4995964;28;20034;-71
2023/06/15 14:35:45;;;;;;;6.53;2.78;;;;;;;28.40;28.20;101595.81;5026676;28;20033;-72
2023/06/15 14:38:12;;;;;;;8.30;2.92;;;;;;;28.43;29.10;101594.34;5013584;28;20034;-73
2023/06/15 14:40:38;;;;;;;13.98;3.15;;;;;;;28.48;28.13;101590.56;5009740;28;20520;-71
2023/06/15 14:43:03;;;;;;;6.55;2.85;;;;;;;28.39;28.44;101594.16;5000469;28;20034;-71
2023/06/15 14:45:29;;;;;;;6.15;3.33;;;;;;;28.47;28.57;101581.38;5009671;28;20085;-72
2023/06/15 14:47:54;;;;;;;8.52;3.30;;;;;;;28.30;27.16;101585.00;4994784;28;20393;-72
2023/06/15 14:50:20;;;;;;;9.18;2.90;;;;;;;28.50;27.49;101593.81;5010346;28;20030;-72
2023/06/15 14:52:46;;;;;;;4.90;2.70;;;;;;;28.62;28.43;101582.84;4992903;28;20173;-74
2023/06/15 14:55:11;;;;;;;6.47;3.00;;;;;;;28.77;27.18;101582.31;4997597;28;20121;-73
2023/06/15 14:57:39;;;;;;;9.68;3.00;;;;;;;28.79;26.96;101584.78;5001826;28;20038;-72
2023/06/15 15:00:07;;;;;;;5.05;2.88;;;;;;;28.80;27.50;101581.66;5011039;28;20073;-72
2023/06/15 15:02:33;;;;;;;4.85;2.70;;;;;;;28.98;27.88;101576.84;5003521;28;20050;-72
2023/06/15 15:04:58;;;;;;;7.05;3.30;;;;;;;28.92;27.82;101575.41;5004759;28;20038;-73
2023/06/15 15:07:23;;;;;;;6.07;2.88;;;;;;;29.06;28.63;101577.16;5012553;28;20509;-72
2023/06/15 15:09:52;;;;;;;6.13;2.83;;;;;;;28.70;28.24;101576.47;5013498;28;20061;-74
2023/06/15 15:12:17;;;;;;;8.90;2.80;;;;;;;28.48;27.69;101569.09;5012012;28;20032;-73
2023/06/15 15:14:43;;;;;;;9.23;2.67;;;;;;;28.48;27.88;101563.53;5008737;28;20034;-74
2023/06/15 15:17:08;;;;;;;8.02;3.03;;;;;;;28.49;27.79;101567.13;5013954;28;20453;-73
2023/06/15 15:19:33;;;;;;;7.43;2.95;;;;;;;28.25;27.87;101571.25;5003080;28;20081;-72
2023/06/15 15:21:59;;;;;;;7.18;2.78;;;;;;;28.07;28.94;101560.13;5008268;28;20034;-74
2023/06/15 15:24:24;;;;;;;4.88;2.90;;;;;;;27.95;29.08;101557.16;5013926;28;20117;-74
2023/06/15 15:26:50;;;;;;;4.88;2.85;;;;;;;27.99;29.20;101574.88;5012181;28;20116;-71
2023/06/15 15:29:15;;;;;;;8.63;2.85;;;;;;;28.02;29.88;101562.25;4996907;28;20066;-73
2023/06/15 15:31:41;;;;;;;9.40;2.78;;;;;;;28.14;30.87;101554.06;5004617;28;20076;-72
2023/06/15 15:34:06;;;;;;;8.07;2.83;;;;;;;28.29;29.27;101561.94;5012809;28;20037;-74
2023/06/15 15:36:32;;;;;;;7.72;2.80;;;;;;;28.37;29.49;101553.88;5010111;28;20061;-74
2023/06/15 15:38:57;;;;;;;4.20;2.72;;;;;;;28.39;29.11;101552.41;4994640;28;20031;-77
2023/06/15 15:41:24;;;;;;;7.00;2.75;;;;;;;28.52;29.44;101553.38;4994308;28;20030;-74
2023/06/15 15:43:51;;;;;;;12.13;2.60;;;;;;;28.70;29.50;101550.56;4992750;28;20027;-76
2023/06/15 15:46:16;;;;;;;7.32;3.85;;;;;;;28.70;28.88;101556.97;4993554;28;20041;-74
2023/06/15 15:48:41;;;;;;;6.07;2.80;;;;;;;28.79;28.91;101552.19;4993929;28;20030;-76
2023/06/15 15:51:09;;;;;;;10.95;2.90;;;;;;;28.83;28.89;101552.31;4994441;28;20031;-74
2023/06/15 15:53:34;;;;;;;6.72;2.97;;;;;;;29.09;29.33;101560.56;4993939;28;20097;-75
2023/06/15 15:56:00;;;;;;;12.75;5.50;;;;;;;29.13;27.69;101553.19;4993455;28;20110;-76
2023/06/15 15:58:25;;;;;;;9.05;3.78;;;;;;;28.95;27.99;101565.56;4993785;28;20058;-73
2023/06/15 16:00:51;;;;;;;7.53;3.90;;;;;;;28.65;28.20;101557.13;4993082;28;20782;-75
2023/06/15 16:03:16;;;;;;;17.98;4.18;;;;;;;28.29;28.94;101555.53;5012297;28;20030;-75
2023/06/15 16:05:41;;;;;;;11.95;2.90;;;;;;;27.99;29.33;101551.78;5011404;28;20116;-73
